createdAt,value
2018-07-25T00:02:12.632Z,8.63
2018-07-25T00:04:41.003Z,8.57
2018-07-25T00:09:59.715Z,8.93
2018-07-25T00:18:09.232Z,9.13
2018-07-25T00:20:37.346Z,9.10
2018-07-25T00:23:05.549Z,9.03
2018-07-25T00:25:33.686Z,8.90
2018-07-25T00:28:01.803Z,8.37
2018-07-25T00:30:29.979Z,8.37
2018-07-25T00:32:58.097Z,8.67
2018-07-25T00:35:26.222Z,8.70
2018-07-25T00:37:54.347Z,9.30
2018-07-25T00:40:22.580Z,8.70
2018-07-25T00:42:50.703Z,8.70
2018-07-25T00:45:18.823Z,8.77
2018-07-25T00:47:46.961Z,8.63
2018-07-25T00:50:15.104Z,8.77
2018-07-25T00:52:43.227Z,8.70
2018-07-25T00:55:11.368Z,8.40
2018-07-25T00:57:39.477Z,8.37
2018-07-25T01:00:07.630Z,8.27
2018-07-25T01:02:35.761Z,7.73
2018-07-25T01:05:04.040Z,8.40
2018-07-25T01:07:32.143Z,8.70
2018-07-25T01:10:00.296Z,8.47
2018-07-25T01:12:28.414Z,8.93
2018-07-25T01:14:57.566Z,9.10
2018-07-25T01:17:25.679Z,8.73
2018-07-25T01:19:53.804Z,8.70
2018-07-25T01:22:21.921Z,8.33
2018-07-25T01:24:50.026Z,8.37
2018-07-25T01:27:18.163Z,9.57
2018-07-25T01:29:46.304Z,8.67
2018-07-25T01:32:14.527Z,8.10
2018-07-25T01:34:42.654Z,9.03
2018-07-25T01:37:10.776Z,9.00
2018-07-25T01:39:38.839Z,8.80
2018-07-25T01:42:06.938Z,8.70
2018-07-25T01:44:35.052Z,8.90
2018-07-25T01:47:03.155Z,8.97
2018-07-25T01:49:31.276Z,9.73
2018-07-25T01:51:59.411Z,9.07
2018-07-25T01:54:27.575Z,8.83
2018-07-25T01:56:55.726Z,8.53
2018-07-25T01:59:27.103Z,9.03
2018-07-25T02:01:55.839Z,9.20
2018-07-25T02:04:23.980Z,10.67
2018-07-25T02:06:52.158Z,9.60
2018-07-25T02:09:20.259Z,9.37
2018-07-25T02:11:48.390Z,8.70
2018-07-25T02:14:16.516Z,9.97
2018-07-25T02:16:44.663Z,9.00
2018-07-25T02:19:12.792Z,9.10
2018-07-25T02:21:40.924Z,9.03
2018-07-25T02:24:09.040Z,9.20
2018-07-25T02:26:37.208Z,9.67
2018-07-25T02:29:05.328Z,9.80
2018-07-25T02:31:33.507Z,9.83
2018-07-25T02:34:07.071Z,9.50
2018-07-25T02:36:35.211Z,9.30
2018-07-25T02:39:03.142Z,10.00
2018-07-25T02:41:31.267Z,9.93
2018-07-25T02:43:59.411Z,9.53
2018-07-25T02:46:27.563Z,10.60
2018-07-25T02:48:55.694Z,9.97
2018-07-25T02:51:23.823Z,9.50
2018-07-25T02:53:51.947Z,9.77
2018-07-25T02:56:20.107Z,9.77
2018-07-25T02:58:48.241Z,10.30
2018-07-25T03:01:16.382Z,9.57
2018-07-25T03:03:44.500Z,10.27
2018-07-25T03:06:12.637Z,9.33
2018-07-25T03:08:40.756Z,10.07
2018-07-25T03:11:08.920Z,9.57
2018-07-25T03:13:37.039Z,9.67
2018-07-25T03:16:06.275Z,9.97
2018-07-25T03:18:34.417Z,10.00
2018-07-25T03:21:02.724Z,10.23
2018-07-25T03:23:32.323Z,10.57
2018-07-25T03:26:00.448Z,9.93
2018-07-25T03:28:29.059Z,9.50
2018-07-25T03:30:57.451Z,9.97
2018-07-25T03:33:26.028Z,10.27
2018-07-25T03:35:55.135Z,9.83
2018-07-25T03:38:23.300Z,10.10
2018-07-25T03:40:51.451Z,11.10
2018-07-25T03:43:19.596Z,10.40
2018-07-25T03:45:47.719Z,11.43
2018-07-25T03:48:15.852Z,11.40
2018-07-25T03:50:43.999Z,10.53
2018-07-25T03:53:12.142Z,10.77
2018-07-25T03:55:40.266Z,11.10
2018-07-25T03:58:08.443Z,11.10
2018-07-25T04:00:36.667Z,10.97
2018-07-25T04:03:04.578Z,11.97
2018-07-25T04:05:32.709Z,11.10
2018-07-25T04:08:00.824Z,11.13
2018-07-25T04:10:28.958Z,11.30
2018-07-25T04:12:57.075Z,10.50
2018-07-25T04:15:25.206Z,10.03
2018-07-25T04:17:53.326Z,11.63
2018-07-25T04:20:21.447Z,12.17
2018-07-25T04:22:49.590Z,11.10
2018-07-25T04:25:17.703Z,11.27
2018-07-25T04:27:46.646Z,11.47
2018-07-25T04:30:16.046Z,11.23
2018-07-25T04:32:44.851Z,10.80
2018-07-25T04:35:14.139Z,11.27
2018-07-25T04:37:42.830Z,11.73
2018-07-25T04:40:11.002Z,11.50
2018-07-25T04:42:39.162Z,11.53
2018-07-25T04:45:08.678Z,12.20
2018-07-25T04:47:36.819Z,12.00
2018-07-25T04:50:05.086Z,11.50
2018-07-25T04:52:33.230Z,11.40
2018-07-25T04:55:01.340Z,12.47
2018-07-25T04:57:29.457Z,12.13
2018-07-25T04:59:57.587Z,12.47
2018-07-25T05:02:25.717Z,12.03
2018-07-25T05:04:53.826Z,12.13
2018-07-25T05:07:21.971Z,12.03
2018-07-25T05:09:50.191Z,11.97
2018-07-25T05:12:18.322Z,12.27
2018-07-25T05:14:46.447Z,11.73
2018-07-25T05:17:14.559Z,12.20
2018-07-25T05:19:42.808Z,11.80
2018-07-25T05:22:11.000Z,11.53
2018-07-25T05:24:39.132Z,12.80
2018-07-25T05:27:07.270Z,12.13
2018-07-25T05:29:35.384Z,11.77
2018-07-25T05:32:03.547Z,11.73
2018-07-25T05:34:31.663Z,11.60
2018-07-25T05:36:59.808Z,11.53
2018-07-25T05:39:27.903Z,12.07
2018-07-25T05:41:56.027Z,11.33
2018-07-25T05:44:24.140Z,11.80
2018-07-25T05:46:52.098Z,11.83
2018-07-25T05:49:20.013Z,12.20
2018-07-25T05:51:47.899Z,12.33
2018-07-25T05:54:16.073Z,11.53
2018-07-25T05:56:44.196Z,12.17
2018-07-25T05:59:12.316Z,12.00
2018-07-25T06:01:40.513Z,11.83
2018-07-25T06:04:08.618Z,11.70
2018-07-25T06:06:36.743Z,11.50
2018-07-25T06:09:07.538Z,12.80
2018-07-25T06:11:35.662Z,12.23
2018-07-25T06:14:03.840Z,12.03
2018-07-25T06:16:31.965Z,11.33
2018-07-25T06:19:00.130Z,12.00
2018-07-25T06:21:28.250Z,12.10
2018-07-25T06:23:56.388Z,16.47
2018-07-25T06:26:24.548Z,12.07
2018-07-25T06:28:52.690Z,12.33
2018-07-25T06:31:20.874Z,12.07
2018-07-25T06:33:48.943Z,11.03
2018-07-25T06:36:17.172Z,11.90
2018-07-25T06:38:45.319Z,11.13
2018-07-25T06:41:13.438Z,10.90
2018-07-25T06:43:41.611Z,12.23
2018-07-25T06:46:09.720Z,11.53
2018-07-25T06:48:37.846Z,12.13
2018-07-25T06:51:06.416Z,12.37
2018-07-25T06:53:34.618Z,13.57
2018-07-25T06:56:02.747Z,12.90
2018-07-25T06:58:31.071Z,12.37
2018-07-25T07:00:59.179Z,11.70
2018-07-25T07:03:27.307Z,11.33
2018-07-25T07:05:55.407Z,12.67
2018-07-25T07:08:23.519Z,13.33
2018-07-25T07:10:51.652Z,12.80
2018-07-25T07:13:19.792Z,12.13
2018-07-25T07:15:47.914Z,12.17
2018-07-25T07:18:16.043Z,12.47
2018-07-25T07:20:44.149Z,13.47
2018-07-25T07:23:12.287Z,13.20
2018-07-25T07:25:40.411Z,12.90
2018-07-25T07:28:08.554Z,12.30
2018-07-25T07:30:36.644Z,13.67
2018-07-25T07:33:04.773Z,13.77
2018-07-25T07:35:32.915Z,14.30
2018-07-25T07:38:01.026Z,13.87
2018-07-25T07:40:29.158Z,15.20
2018-07-25T07:42:57.273Z,14.50
2018-07-25T07:45:25.434Z,14.00
2018-07-25T07:47:53.558Z,13.00
2018-07-25T07:50:21.664Z,12.00
2018-07-25T07:52:50.038Z,15.03
2018-07-25T07:55:18.237Z,14.77
2018-07-25T07:57:46.352Z,12.57
2018-07-25T08:00:14.471Z,14.00
2018-07-25T08:02:42.599Z,13.20
2018-07-25T08:05:10.787Z,13.33
2018-07-25T08:07:38.935Z,15.27
2018-07-25T08:10:07.045Z,15.63
2018-07-25T08:12:35.170Z,15.20
2018-07-25T08:15:03.324Z,12.60
2018-07-25T08:17:31.460Z,15.80
2018-07-25T08:19:59.655Z,14.07
2018-07-25T08:22:27.708Z,14.13
2018-07-25T08:24:55.892Z,15.23
2018-07-25T08:27:23.961Z,16.80
2018-07-25T08:29:52.075Z,14.80
2018-07-25T08:32:20.183Z,17.27
2018-07-25T08:34:48.476Z,15.13
2018-07-25T08:37:16.526Z,17.03
2018-07-25T08:39:44.653Z,16.57
2018-07-25T08:42:12.762Z,17.10
2018-07-25T08:44:40.881Z,13.80
2018-07-25T08:47:08.977Z,17.07
2018-07-25T08:49:37.120Z,16.97
2018-07-25T08:52:05.247Z,15.60
2018-07-25T08:54:33.354Z,16.77
2018-07-25T08:57:01.492Z,18.23
2018-07-25T08:59:29.615Z,16.77
2018-07-25T09:01:57.747Z,16.70
2018-07-25T09:04:25.875Z,17.20
2018-07-25T09:06:53.997Z,15.73
2018-07-25T09:09:22.144Z,15.87
2018-07-25T09:11:50.246Z,14.63
2018-07-25T09:14:18.473Z,18.77
2018-07-25T09:16:46.615Z,17.00
2018-07-25T09:19:14.698Z,14.33
2018-07-25T09:21:42.803Z,16.03
2018-07-25T09:24:10.931Z,16.83
2018-07-25T09:26:39.114Z,16.57
2018-07-25T09:29:07.237Z,20.90
2018-07-25T09:31:35.355Z,21.77
2018-07-25T09:34:03.612Z,18.50
2018-07-25T09:36:31.672Z,19.67
2018-07-25T09:38:59.781Z,21.67
2018-07-25T09:41:27.906Z,19.10
2018-07-25T09:43:56.049Z,20.33
2018-07-25T09:46:24.168Z,21.50
2018-07-25T09:48:52.140Z,17.43
2018-07-25T09:51:20.352Z,20.50
2018-07-25T09:53:48.483Z,18.13
2018-07-25T09:56:17.183Z,15.93
2018-07-25T09:58:45.291Z,15.10
2018-07-25T10:01:13.388Z,16.57
2018-07-25T10:03:41.504Z,20.13
2018-07-25T10:06:09.628Z,15.23
2018-07-25T10:08:37.752Z,14.60
2018-07-25T10:11:05.803Z,15.67
2018-07-25T10:13:33.908Z,18.30
2018-07-25T10:16:02.082Z,17.43
2018-07-25T10:18:30.183Z,15.60
2018-07-25T10:20:58.321Z,17.07
2018-07-25T10:23:26.496Z,16.30
2018-07-25T10:25:54.748Z,15.10
2018-07-25T10:28:22.904Z,16.60
2018-07-25T10:30:51.080Z,16.63
2018-07-25T10:33:19.209Z,15.43
2018-07-25T10:35:47.339Z,15.47
2018-07-25T10:38:15.475Z,16.33
2018-07-25T10:40:43.681Z,20.70
2018-07-25T10:43:11.875Z,17.80
2018-07-25T10:45:40.044Z,18.33
2018-07-25T10:48:08.163Z,16.70
2018-07-25T10:50:36.288Z,16.20
2018-07-25T10:53:04.436Z,14.70
2018-07-25T10:55:32.386Z,17.70
2018-07-25T10:58:00.516Z,14.10
2018-07-25T11:00:28.656Z,12.70
2018-07-25T11:02:56.802Z,13.63
2018-07-25T11:05:24.944Z,16.30
2018-07-25T11:07:53.080Z,13.20
2018-07-25T11:10:21.216Z,13.37
2018-07-25T11:12:49.351Z,11.97
2018-07-25T11:15:17.462Z,13.17
2018-07-25T11:17:45.599Z,11.97
2018-07-25T11:20:13.739Z,11.80
2018-07-25T11:22:41.873Z,11.80
2018-07-25T11:25:09.991Z,11.10
2018-07-25T11:27:38.195Z,13.30
2018-07-25T11:30:06.372Z,12.20
2018-07-25T11:32:34.589Z,12.70
2018-07-25T11:35:02.677Z,10.50
2018-07-25T11:37:30.782Z,10.87
2018-07-25T11:39:58.914Z,10.80
2018-07-25T11:42:27.044Z,10.13
2018-07-25T11:44:55.155Z,9.03
2018-07-25T11:47:23.279Z,8.87
2018-07-25T11:49:51.415Z,8.77
2018-07-25T11:52:19.507Z,9.13
2018-07-25T11:54:47.689Z,7.40
2018-07-25T11:57:15.814Z,8.07
2018-07-25T11:59:43.934Z,8.50
2018-07-25T12:02:12.058Z,8.93
2018-07-25T12:04:39.967Z,7.60
2018-07-25T12:07:08.264Z,7.77
2018-07-25T12:09:36.366Z,8.17
2018-07-25T12:12:04.508Z,9.17
2018-07-25T12:14:32.644Z,7.33
2018-07-25T12:17:00.783Z,8.07
2018-07-25T12:19:28.923Z,7.20
2018-07-25T12:21:57.038Z,7.23
2018-07-25T12:24:25.166Z,7.73
2018-07-25T12:26:53.381Z,6.97
2018-07-25T12:29:21.464Z,6.93
2018-07-25T12:31:49.613Z,7.10
2018-07-25T12:34:17.593Z,8.13
2018-07-25T12:36:45.758Z,7.50
2018-07-25T12:39:13.839Z,7.07
2018-07-25T12:41:42.572Z,7.70
2018-07-25T12:44:10.679Z,7.87
2018-07-25T12:46:38.825Z,7.00
2018-07-25T12:49:06.963Z,7.00
2018-07-25T12:51:35.079Z,6.97
2018-07-25T12:54:03.249Z,6.23
2018-07-25T12:56:31.328Z,6.73
2018-07-25T12:58:59.850Z,6.30
2018-07-25T13:01:28.079Z,6.20
2018-07-25T13:03:56.200Z,5.67
2018-07-25T13:06:24.380Z,6.08
2018-07-25T13:08:52.533Z,9.67
2018-07-25T13:11:20.679Z,6.87
2018-07-25T13:13:48.843Z,6.17
2018-07-25T13:16:17.359Z,5.97
2018-07-25T13:18:45.943Z,6.20
2018-07-25T13:21:13.627Z,6.37
2018-07-25T13:23:41.777Z,5.83
2018-07-25T13:26:09.927Z,5.55
2018-07-25T13:28:38.038Z,5.65
2018-07-25T13:31:06.166Z,6.20
2018-07-25T13:33:34.322Z,6.45
2018-07-25T13:36:02.450Z,5.87
2018-07-25T13:38:30.563Z,6.40
2018-07-25T13:40:58.691Z,5.83
2018-07-25T13:43:26.804Z,5.75
2018-07-25T13:45:54.951Z,6.45
2018-07-25T13:48:23.052Z,6.37
2018-07-25T13:50:51.143Z,5.90
2018-07-25T13:53:19.304Z,10.70
2018-07-25T13:55:47.460Z,7.60
2018-07-25T13:58:15.572Z,6.37
2018-07-25T14:00:43.707Z,6.62
2018-07-25T14:03:11.907Z,6.90
2018-07-25T14:05:40.069Z,7.00
2018-07-25T14:08:08.218Z,7.12
2018-07-25T14:10:36.448Z,7.60
2018-07-25T14:13:04.572Z,6.90
2018-07-25T14:15:32.710Z,7.40
2018-07-25T14:18:00.831Z,6.80
2018-07-25T14:20:29.217Z,7.25
2018-07-25T14:22:57.364Z,6.92
2018-07-25T14:25:25.664Z,6.65
2018-07-25T14:27:53.785Z,7.15
2018-07-25T14:30:22.136Z,7.20
2018-07-25T14:32:50.148Z,7.15
2018-07-25T14:35:18.256Z,6.90
2018-07-25T14:37:46.388Z,6.30
2018-07-25T14:40:14.611Z,6.12
2018-07-25T14:42:42.644Z,6.40
2018-07-25T14:45:10.775Z,5.87
2018-07-25T14:47:38.919Z,6.12
2018-07-25T14:50:07.761Z,5.45
2018-07-25T14:52:35.884Z,5.40
2018-07-25T14:55:04.135Z,5.80
2018-07-25T14:57:32.279Z,4.87
2018-07-25T15:00:00.468Z,5.22
2018-07-25T15:02:28.627Z,4.75
2018-07-25T15:04:56.687Z,4.87
2018-07-25T15:07:24.900Z,4.83
2018-07-25T15:09:53.068Z,4.80
2018-07-25T15:12:25.451Z,4.60
2018-07-25T15:14:53.548Z,4.40
2018-07-25T15:17:21.679Z,4.80
2018-07-25T15:19:49.804Z,4.75
2018-07-25T15:22:18.418Z,4.35
2018-07-25T15:24:46.677Z,4.67
2018-07-25T15:27:14.797Z,4.62
2018-07-25T15:29:42.936Z,4.50
2018-07-25T15:32:11.525Z,4.73
2018-07-25T15:34:39.651Z,4.77
2018-07-25T15:37:07.779Z,5.27
2018-07-25T15:39:35.908Z,4.87
2018-07-25T15:42:04.034Z,4.70
2018-07-25T15:44:32.157Z,4.80
2018-07-25T15:47:00.330Z,4.83
2018-07-25T15:49:28.399Z,4.47
2018-07-25T15:51:56.540Z,4.53
2018-07-25T15:54:24.660Z,4.13
2018-07-25T15:56:52.898Z,4.50
2018-07-25T15:59:21.038Z,4.43
2018-07-25T16:01:49.280Z,5.00
2018-07-25T16:04:17.313Z,4.90
2018-07-25T16:06:45.433Z,4.43
2018-07-25T16:09:13.615Z,5.10
2018-07-25T16:11:42.052Z,4.63
2018-07-25T16:14:10.184Z,4.80
2018-07-25T16:16:38.286Z,4.50
2018-07-25T16:19:06.450Z,4.77
2018-07-25T16:21:34.547Z,4.77
2018-07-25T16:24:02.670Z,4.70
2018-07-25T16:26:30.767Z,4.90
2018-07-25T16:28:58.887Z,5.00
2018-07-25T16:31:26.975Z,5.10
2018-07-25T16:33:55.912Z,4.60
2018-07-25T16:36:24.044Z,4.87
2018-07-25T16:38:52.158Z,4.50
2018-07-25T16:41:20.289Z,4.20
2018-07-25T16:43:48.390Z,4.53
2018-07-25T16:46:16.507Z,4.90
2018-07-25T16:48:44.622Z,4.57
2018-07-25T16:51:12.723Z,4.83
2018-07-25T16:53:40.860Z,4.73
2018-07-25T16:56:09.263Z,4.80
2018-07-25T16:58:37.359Z,4.83
2018-07-25T17:01:05.472Z,4.67
2018-07-25T17:03:33.596Z,4.57
2018-07-25T17:06:01.728Z,4.80
2018-07-25T17:08:29.883Z,4.60
2018-07-25T17:10:58.028Z,4.43
2018-07-25T17:13:26.030Z,4.80
2018-07-25T17:15:54.147Z,4.33
2018-07-25T17:18:22.512Z,5.03
2018-07-25T17:20:52.118Z,5.27
2018-07-25T17:23:20.257Z,5.47
2018-07-25T17:25:48.384Z,5.07
2018-07-25T17:28:16.508Z,5.07
2018-07-25T17:30:45.123Z,4.80
2018-07-25T17:33:13.421Z,4.57
2018-07-25T17:35:41.567Z,5.03
2018-07-25T17:38:09.692Z,5.03
2018-07-25T17:40:37.850Z,5.23
2018-07-25T17:43:06.257Z,4.93
2018-07-25T17:45:34.398Z,5.00
2018-07-25T17:48:02.556Z,5.13
2018-07-25T17:50:30.680Z,5.00
2018-07-25T17:52:58.852Z,4.87
2018-07-25T17:55:26.979Z,4.87
2018-07-25T17:57:55.030Z,5.50
2018-07-25T18:00:23.171Z,5.27
2018-07-25T18:02:51.467Z,5.27
2018-07-25T18:05:19.574Z,4.93
2018-07-25T18:07:47.680Z,4.90
2018-07-25T18:10:15.799Z,4.80
2018-07-25T18:12:43.906Z,5.23
2018-07-25T18:15:12.036Z,4.97
2018-07-25T18:17:40.132Z,5.00
2018-07-25T18:20:08.266Z,5.30
2018-07-25T18:22:36.458Z,5.10
2018-07-25T18:25:05.333Z,4.90
2018-07-25T18:27:33.455Z,5.33
2018-07-25T18:30:01.583Z,5.00
2018-07-25T18:32:29.733Z,5.30
2018-07-25T18:34:57.843Z,4.80
2018-07-25T18:37:25.976Z,4.73
2018-07-25T18:39:54.086Z,5.10
2018-07-25T18:42:22.219Z,5.10
2018-07-25T18:44:50.358Z,4.63
2018-07-25T18:47:18.457Z,5.37
2018-07-25T18:49:46.566Z,4.73
2018-07-25T18:52:14.710Z,4.80
2018-07-25T18:54:42.982Z,5.13
2018-07-25T18:57:11.129Z,5.37
2018-07-25T18:59:39.243Z,5.20
2018-07-25T19:02:07.361Z,5.30
2018-07-25T19:04:35.302Z,5.40
2018-07-25T19:07:03.443Z,5.47
2018-07-25T19:09:31.520Z,5.33
2018-07-25T19:11:59.619Z,5.53
2018-07-25T19:15:31.899Z,5.47
2018-07-25T19:18:00.643Z,5.37
2018-07-25T19:20:28.871Z,5.03
2018-07-25T19:22:58.027Z,5.53
2018-07-25T19:25:26.160Z,8.40
2018-07-25T19:27:56.310Z,5.30
2018-07-25T19:30:24.466Z,5.27
2018-07-25T19:32:52.604Z,4.60
2018-07-25T19:35:20.714Z,5.20
2018-07-25T19:37:48.919Z,4.93
2018-07-25T19:40:17.062Z,4.80
2018-07-25T19:42:46.291Z,5.30
2018-07-25T19:45:14.461Z,5.00
2018-07-25T19:47:42.571Z,5.70
2018-07-25T19:50:10.708Z,4.97
2018-07-25T19:52:38.816Z,4.87
2018-07-25T19:55:06.942Z,4.90
2018-07-25T19:57:35.042Z,5.37
2018-07-25T20:00:03.157Z,5.40
2018-07-25T20:02:31.298Z,6.17
2018-07-25T20:04:59.415Z,5.10
2018-07-25T20:07:27.575Z,5.27
2018-07-25T20:09:55.674Z,5.77
2018-07-25T20:12:23.763Z,5.70
2018-07-25T20:14:57.185Z,6.13
2018-07-25T20:17:25.302Z,5.47
2018-07-25T20:19:53.696Z,5.43
2018-07-25T20:22:21.816Z,5.60
2018-07-25T20:24:49.911Z,5.77
2018-07-25T20:27:18.047Z,5.57
2018-07-25T20:29:46.164Z,5.53
2018-07-25T20:32:14.285Z,5.70
2018-07-25T20:34:42.423Z,5.20
2018-07-25T20:37:10.515Z,5.67
2018-07-25T20:39:38.654Z,5.57
2018-07-25T20:42:06.770Z,6.10
2018-07-25T20:44:34.911Z,6.27
2018-07-25T20:47:03.028Z,5.63
2018-07-25T20:49:31.800Z,6.60
2018-07-25T20:51:59.912Z,6.43
2018-07-25T20:54:28.027Z,5.87
2018-07-25T20:56:56.135Z,5.80
2018-07-25T20:59:24.267Z,5.57
2018-07-25T21:01:52.383Z,5.70
2018-07-25T21:04:20.505Z,6.40
2018-07-25T21:06:48.630Z,5.80
2018-07-25T21:09:16.737Z,5.97
2018-07-25T21:11:45.060Z,6.20
2018-07-25T21:14:13.370Z,6.33
2018-07-25T21:16:41.502Z,6.53
2018-07-25T21:19:09.778Z,6.53
2018-07-25T21:21:37.892Z,6.37
2018-07-25T21:24:06.195Z,6.20
2018-07-25T21:26:34.428Z,6.83
2018-07-25T21:29:02.649Z,6.30
2018-07-25T21:31:30.651Z,6.13
2018-07-25T21:33:58.800Z,6.70
2018-07-25T21:36:27.171Z,7.13
2018-07-25T21:38:55.770Z,7.50
2018-07-25T21:41:23.919Z,7.10
2018-07-25T21:43:52.129Z,7.10
2018-07-25T21:46:20.327Z,7.73
2018-07-25T21:48:48.564Z,6.87
2018-07-25T21:51:16.849Z,6.73
2018-07-25T21:53:45.015Z,6.33
2018-07-25T21:56:13.937Z,6.80
2018-07-25T21:58:42.147Z,7.23
2018-07-25T22:01:10.298Z,6.87
2018-07-25T22:03:38.702Z,7.10
2018-07-25T22:06:06.830Z,7.27
2018-07-25T22:08:35.015Z,7.07
2018-07-25T22:11:02.954Z,7.40
2018-07-25T22:13:31.100Z,6.90
2018-07-25T22:15:59.759Z,6.63
2018-07-25T22:18:27.892Z,6.93
2018-07-25T22:20:56.051Z,6.80
2018-07-25T22:23:24.252Z,7.20
2018-07-25T22:25:52.363Z,7.50
2018-07-25T22:28:20.520Z,7.00
2018-07-25T22:30:48.641Z,6.50
2018-07-25T22:33:16.771Z,6.43
2018-07-25T22:35:44.891Z,6.83
2018-07-25T22:38:13.012Z,6.10
2018-07-25T22:40:41.139Z,6.57
2018-07-25T22:43:09.271Z,6.60
2018-07-25T22:45:37.370Z,6.10
2018-07-25T22:48:05.840Z,6.97
2018-07-25T22:50:33.948Z,6.77
2018-07-25T22:53:02.064Z,6.33
2018-07-25T22:55:30.192Z,6.80
2018-07-25T22:57:58.300Z,8.20
2018-07-25T23:00:26.410Z,6.50
2018-07-25T23:02:54.556Z,7.23
2018-07-25T23:05:22.674Z,6.90
2018-07-25T23:07:50.808Z,7.30
2018-07-25T23:10:18.951Z,6.97
2018-07-25T23:12:47.075Z,6.60
2018-07-25T23:15:15.182Z,7.47
2018-07-25T23:17:43.403Z,6.97
2018-07-25T23:20:11.529Z,6.87
2018-07-25T23:22:52.994Z,7.10
2018-07-25T23:25:21.103Z,7.00
2018-07-25T23:27:49.327Z,7.23
2018-07-25T23:30:17.659Z,7.30
2018-07-25T23:32:45.786Z,6.97
2018-07-25T23:35:13.914Z,7.80
2018-07-25T23:37:42.033Z,7.80
2018-07-25T23:40:10.147Z,6.90
2018-07-25T23:42:38.270Z,7.10
2018-07-25T23:45:06.392Z,6.53
2018-07-25T23:47:34.710Z,7.00
2018-07-25T23:50:03.527Z,7.43
2018-07-25T23:52:31.780Z,7.13
2018-07-25T23:54:59.895Z,7.87
2018-07-25T23:57:28.025Z,7.47
2018-07-25T23:59:56.122Z,7.60
